Time;durP1;ratioP1;P1;durP2;ratioP2;P2;SDS_P1;SDS_P2;PMS_P1;PMS_P2;Temp;Humidity;BMP_temperature;BMP_pressure;BME280_temperature;BME280_humidity;BME280_pressure;Samples;Min_cycle;Max_cycle;Signal;HPM_P1;HPM_P2
2021/11/18 00:01:50;;;;;;;10.67;2.97;;;6.40;99.90;;;;;;4893954;29;20241;-80
2021/11/18 00:04:19;;;;;;;9.47;2.50;;;6.40;99.90;;;;;;4892358;29;20249;-80
2021/11/18 00:06:49;;;;;;;11.63;2.50;;;6.40;99.90;;;;;;4886531;29;20229;-79
2021/11/18 00:09:20;;;;;;;13.87;2.57;;;6.40;99.90;;;;;;4893734;29;20261;-79
2021/11/18 00:11:50;;;;;;;13.60;3.07;;;6.40;99.90;;;;;;4885996;29;20493;-79
2021/11/18 00:14:19;;;;;;;10.50;2.70;;;6.40;99.90;;;;;;4892270;29;20481;-79
2021/11/18 00:16:48;;;;;;;12.90;2.97;;;6.40;99.90;;;;;;4889276;29;20244;-80
2021/11/18 00:19:18;;;;;;;13.90;2.83;;;6.40;99.90;;;;;;4894775;29;21007;-79
2021/11/18 00:21:46;;;;;;;14.40;2.83;;;6.40;99.90;;;;;;4887873;29;20257;-79
2021/11/18 00:24:14;;;;;;;13.17;2.97;;;6.40;99.90;;;;;;4892124;29;20581;-80
2021/11/18 00:26:44;;;;;;;16.10;2.70;;;6.40;99.90;;;;;;4892772;29;20241;-79
2021/11/18 00:29:13;;;;;;;15.50;3.13;;;6.40;99.90;;;;;;4892074;29;20243;-80
2021/11/18 00:31:41;;;;;;;16.33;2.80;;;6.40;99.90;;;;;;4892037;29;20399;-79
2021/11/18 00:34:11;;;;;;;14.57;3.17;;;6.40;99.90;;;;;;4891847;29;20248;-79
2021/11/18 00:36:39;;;;;;;9.67;2.80;;;6.40;99.90;;;;;;4892190;29;20552;-80
2021/11/18 00:39:08;;;;;;;17.67;3.17;;;6.40;99.90;;;;;;4891058;29;20242;-79
2021/11/18 00:41:36;;;;;;;18.00;3.30;;;6.40;99.90;;;;;;4892300;29;20604;-79
2021/11/18 00:44:05;;;;;;;10.10;2.80;;;6.40;99.90;;;;;;4891417;29;20617;-79
2021/11/18 00:46:34;;;;;;;14.37;2.80;;;6.50;99.90;;;;;;4892191;29;20868;-80
2021/11/18 00:49:02;;;;;;;15.57;3.00;;;6.50;99.90;;;;;;4877784;29;20500;-80
2021/11/18 00:51:33;;;;;;;9.80;2.77;;;6.50;99.90;;;;;;4893671;29;20578;-80
2021/11/18 00:54:04;;;;;;;17.77;3.23;;;6.40;99.90;;;;;;4892943;29;20320;-79
2021/11/18 00:56:34;;;;;;;13.33;3.13;;;6.50;99.90;;;;;;4889514;29;20241;-80
2021/11/18 00:59:03;;;;;;;14.53;3.23;;;6.40;99.90;;;;;;4890860;29;20591;-80
2021/11/18 01:01:35;;;;;;;18.17;2.80;;;6.40;99.90;;;;;;4889739;29;20237;-80
2021/11/18 01:04:04;;;;;;;15.43;2.97;;;6.40;99.90;;;;;;4890538;29;20293;-79
2021/11/18 01:06:34;;;;;;;12.33;2.47;;;6.40;99.90;;;;;;4875321;29;20729;-80
2021/11/18 01:09:21;;;;;;;12.99;2.86;;;6.40;99.90;;;;;;4084517;29;10002720;-79
2021/11/18 01:11:50;;;;;;;13.07;2.80;;;6.30;99.90;;;;;;2349707;29;10001894;-81
2021/11/18 01:14:23;;;;;;;17.07;3.40;;;6.30;99.90;;;;;;4897216;29;20748;-79
2021/11/18 01:16:53;;;;;;;14.63;2.90;;;6.30;99.90;;;;;;4891987;29;20308;-79
2021/11/18 01:19:25;;;;;;;12.30;2.97;;;6.20;99.90;;;;;;4895059;29;20248;-79
2021/11/18 01:21:57;;;;;;;13.97;2.70;;;6.20;99.90;;;;;;4893615;29;20248;-79
2021/11/18 01:24:31;;;;;;;17.00;3.10;;;6.20;99.90;;;;;;4871613;29;20236;-79
2021/11/18 01:27:12;;;;;;;14.43;3.47;;;6.30;99.90;;;;;;4873145;29;20244;-80
2021/11/18 01:29:42;;;;;;;12.67;3.00;;;6.20;99.90;;;;;;4889930;29;20573;-79
2021/11/18 01:32:10;;;;;;;17.70;2.87;;;6.30;99.90;;;;;;4888999;29;20249;-79
2021/11/18 01:34:42;;;;;;;10.83;3.43;;;6.20;99.90;;;;;;4888639;29;20578;-79
2021/11/18 01:37:13;;;;;;;16.83;3.00;;;6.20;99.90;;;;;;4889058;29;20260;-79
2021/11/18 01:39:41;;;;;;;14.30;3.20;;;6.30;99.90;;;;;;4889097;29;20237;-79
2021/11/18 01:42:10;;;;;;;14.73;2.90;;;6.40;99.90;;;;;;4874829;29;20899;-79
2021/11/18 01:44:41;;;;;;;15.90;3.17;;;6.40;99.90;;;;;;4889117;29;21431;-79
2021/11/18 01:47:11;;;;;;;10.57;2.47;;;6.40;99.90;;;;;;4886820;29;20256;-80
2021/11/18 01:49:40;;;;;;;13.27;3.00;;;6.40;99.90;;;;;;4891853;29;20608;-79
2021/11/18 01:52:14;;;;;;;12.90;3.10;;;6.60;99.90;;;;;;4875562;29;20713;-80
2021/11/18 01:54:45;;;;;;;13.23;2.50;;;6.50;99.90;;;;;;4890016;29;20229;-79
2021/11/18 01:57:15;;;;;;;11.43;2.70;;;6.50;99.90;;;;;;4876023;29;20313;-79
2021/11/18 01:59:56;;;;;;;16.90;3.17;;;6.50;99.90;;;;;;4890791;29;20249;-79
2021/11/18 02:02:43;;;;;;;12.37;2.83;;;6.60;99.90;;;;;;4891127;29;20237;-80
2021/11/18 02:05:23;;;;;;;12.23;2.40;;;6.70;99.90;;;;;;4891367;29;20240;-79
2021/11/18 02:07:57;;;;;;;13.50;2.50;;;6.70;99.90;;;;;;4892576;29;20247;-80
2021/11/18 02:10:50;;;;;;;16.97;3.10;;;6.70;99.90;;;;;;4891017;29;20260;-81
2021/11/18 02:13:21;;;;;;;11.00;2.63;;;6.70;99.90;;;;;;4875597;29;20237;-80
2021/11/18 02:15:53;;;;;;;13.30;2.53;;;6.80;99.90;;;;;;4889385;29;20232;-80
2021/11/18 02:18:24;;;;;;;15.90;3.23;;;6.90;99.90;;;;;;4875722;29;20241;-79
2021/11/18 02:20:58;;;;;;;10.33;2.17;;;6.90;99.90;;;;;;4896037;29;20845;-79
2021/11/18 02:23:30;;;;;;;12.77;2.93;;;6.90;99.90;;;;;;4890292;29;20591;-79
2021/11/18 02:26:00;;;;;;;18.03;2.93;;;6.90;99.90;;;;;;4890330;29;20245;-79
2021/11/18 02:28:31;;;;;;;11.40;3.23;;;7.00;99.90;;;;;;4877040;29;20260;-80
2021/11/18 02:31:04;;;;;;;14.83;3.67;;;7.00;99.90;;;;;;4890324;29;20252;-79
2021/11/18 02:33:32;;;;;;;16.67;3.20;;;6.90;99.90;;;;;;4888941;29;20237;-79
2021/11/18 02:36:02;;;;;;;24.53;3.60;;;6.90;99.90;;;;;;4891153;29;20245;-79
2021/11/18 02:38:30;;;;;;;14.23;3.07;;;7.00;99.90;;;;;;4891567;29;20229;-80
2021/11/18 02:41:10;;;;;;;16.60;3.50;;;7.00;99.90;;;;;;4874390;29;20261;-79
2021/11/18 02:43:39;;;;;;;17.57;3.30;;;7.00;99.90;;;;;;4891893;29;20293;-79
2021/11/18 02:46:08;;;;;;;16.07;3.40;;;7.10;99.90;;;;;;4874530;29;20237;-79
2021/11/18 02:48:37;;;;;;;16.43;3.20;;;7.10;99.90;;;;;;4876798;29;20229;-79
2021/11/18 02:51:12;;;;;;;17.50;3.70;;;7.10;99.90;;;;;;4899009;29;20240;-80
2021/11/18 02:53:41;;;;;;;16.03;3.20;;;7.10;99.90;;;;;;4889661;29;20245;-79
2021/11/18 02:56:11;;;;;;;15.40;3.23;;;7.10;99.90;;;;;;4891271;29;20730;-79
2021/11/18 02:58:43;;;;;;;17.67;2.80;;;7.10;99.90;;;;;;4892097;29;20237;-79
2021/11/18 03:01:15;;;;;;;13.57;3.17;;;7.10;99.90;;;;;;4890316;29;20237;-79
2021/11/18 03:03:44;;;;;;;13.47;3.40;;;7.10;99.90;;;;;;4892441;29;20648;-78
2021/11/18 03:06:14;;;;;;;16.10;3.03;;;7.00;99.90;;;;;;4874097;29;20248;-78
2021/11/18 03:08:43;;;;;;;13.63;2.83;;;7.10;99.90;;;;;;4889649;29;20229;-78
2021/11/18 03:11:17;;;;;;;11.98;3.88;;;7.10;99.90;;;;;;3485423;29;10024610;-79
2021/11/18 03:13:46;;;;;;;15.38;3.33;;;7.10;99.90;;;;;;2353982;29;10001980;-78
2021/11/18 03:16:15;;;;;;;15.87;3.70;;;7.20;99.90;;;;;;4878025;29;20280;-78
2021/11/18 03:18:44;;;;;;;22.67;3.70;;;7.20;99.90;;;;;;4885278;29;20237;-78
2021/11/18 03:21:17;;;;;;;15.03;3.40;;;7.20;99.90;;;;;;4890779;29;20828;-78
2021/11/18 03:23:52;;;;;;;18.37;3.23;;;7.20;99.90;;;;;;4885251;29;20247;-78
2021/11/18 03:26:23;;;;;;;19.37;3.77;;;7.20;99.90;;;;;;4890535;29;20768;-79
2021/11/18 03:28:52;;;;;;;15.23;3.63;;;7.30;99.90;;;;;;4875666;29;20241;-78
2021/11/18 03:31:20;;;;;;;15.90;3.43;;;7.20;99.90;;;;;;4893906;29;20721;-78
2021/11/18 03:33:56;;;;;;;15.50;3.27;;;7.20;99.90;;;;;;4878493;29;20234;-79
2021/11/18 03:36:27;;;;;;;13.07;3.50;;;7.20;99.90;;;;;;4897959;29;20327;-78
2021/11/18 03:38:57;;;;;;;10.77;2.70;;;7.10;99.90;;;;;;4899741;29;20237;-78
2021/11/18 03:41:35;;;;;;;16.23;3.57;;;7.10;99.90;;;;;;4894559;29;20264;-78
2021/11/18 03:44:07;;;;;;;16.67;3.37;;;7.10;99.90;;;;;;4892335;29;20270;-78
2021/11/18 03:46:39;;;;;;;16.03;3.73;;;7.00;99.90;;;;;;4899269;29;20237;-79
2021/11/18 03:49:11;;;;;;;12.23;3.13;;;7.00;99.90;;;;;;4893217;29;20240;-79
2021/11/18 03:51:47;;;;;;;14.17;3.50;;;7.10;99.90;;;;;;4877376;29;21296;-78
2021/11/18 03:54:18;;;;;;;14.30;3.20;;;7.10;99.90;;;;;;4893287;29;20646;-78
2021/11/18 03:56:48;;;;;;;13.97;3.37;;;7.10;99.90;;;;;;4885595;29;20269;-78
2021/11/18 03:59:19;;;;;;;19.70;4.40;;;7.10;99.90;;;;;;4893696;29;20236;-78
2021/11/18 04:01:48;;;;;;;21.20;3.67;;;7.10;99.90;;;;;;4894996;29;20260;-79
2021/11/18 04:04:20;;;;;;;21.53;4.73;;;7.10;99.90;;;;;;4892804;29;20677;-78
2021/11/18 04:06:50;;;;;;;20.47;3.73;;;7.10;99.90;;;;;;4886569;29;20237;-79
2021/11/18 04:09:19;;;;;;;14.77;3.50;;;7.10;99.90;;;;;;4899071;29;20261;-79
2021/11/18 04:11:50;;;;;;;19.77;3.57;;;7.10;99.90;;;;;;4877183;29;20312;-78
2021/11/18 04:14:20;;;;;;;21.33;3.80;;;7.10;99.90;;;;;;4891419;29;20244;-79
2021/11/18 04:16:51;;;;;;;14.63;3.63;;;7.10;99.90;;;;;;4899854;29;20260;-80
2021/11/18 04:19:20;;;;;;;11.33;3.27;;;7.20;99.90;;;;;;4876871;29;20268;-80
2021/11/18 04:21:51;;;;;;;17.23;3.70;;;7.20;99.90;;;;;;4899740;29;20237;-80
2021/11/18 04:24:22;;;;;;;14.00;3.70;;;7.20;99.90;;;;;;4892567;29;20252;-80
2021/11/18 04:26:52;;;;;;;13.87;3.23;;;7.20;99.90;;;;;;4876101;29;20260;-81
2021/11/18 04:29:27;;;;;;;13.67;3.77;;;7.20;99.90;;;;;;4892524;29;20668;-80
2021/11/18 04:32:01;;;;;;;16.23;3.67;;;7.20;99.90;;;;;;4892459;29;20333;-80
2021/11/18 04:34:29;;;;;;;15.50;3.70;;;7.30;99.90;;;;;;4896569;29;20312;-80
2021/11/18 04:37:00;;;;;;;19.77;4.43;;;7.30;99.90;;;;;;4892031;29;20575;-80
2021/11/18 04:39:28;;;;;;;20.30;4.20;;;7.20;99.90;;;;;;4891556;29;20237;-81
2021/11/18 04:41:56;;;;;;;22.93;4.20;;;7.30;99.90;;;;;;4877539;29;20320;-80
2021/11/18 04:44:26;;;;;;;19.50;4.53;;;7.30;99.90;;;;;;4888753;29;20240;-80
2021/11/18 04:46:59;;;;;;;16.70;4.20;;;7.30;99.90;;;;;;4892929;29;20622;-80
2021/11/18 04:49:27;;;;;;;27.33;4.10;;;7.30;99.90;;;;;;4891737;29;20630;-80
2021/11/18 04:52:00;;;;;;;20.30;5.00;;;7.30;99.90;;;;;;4897459;29;20356;-80
2021/11/18 04:54:30;;;;;;;18.87;4.20;;;7.30;99.90;;;;;;4893234;29;20240;-80
2021/11/18 04:56:59;;;;;;;15.43;4.03;;;7.30;99.90;;;;;;4875778;29;20241;-80
2021/11/18 04:59:27;;;;;;;20.50;4.43;;;7.30;99.90;;;;;;4892148;29;20275;-80
2021/11/18 05:01:56;;;;;;;19.20;4.70;;;7.20;99.90;;;;;;4876173;29;20235;-80
2021/11/18 05:04:25;;;;;;;20.83;4.13;;;7.30;99.90;;;;;;4889733;29;20253;-80
2021/11/18 05:06:53;;;;;;;25.27;4.40;;;7.30;99.90;;;;;;4891348;29;20288;-80
2021/11/18 05:09:22;;;;;;;19.47;3.93;;;7.30;99.90;;;;;;4893122;29;20249;-80
2021/11/18 05:11:51;;;;;;;20.63;4.33;;;7.20;99.90;;;;;;4844252;29;21424;-80
2021/11/18 05:14:22;;;;;;;16.37;5.43;;;7.30;99.90;;;;;;979455;29;10002026;-80
2021/11/18 05:16:54;;;;;;;19.17;5.03;;;7.30;99.90;;;;;;4892208;29;20257;-80
2021/11/18 05:19:25;;;;;;;18.50;4.90;;;7.30;99.90;;;;;;4893436;29;20577;-80
2021/11/18 05:21:54;;;;;;;23.93;6.07;;;7.30;99.90;;;;;;4896253;29;20256;-80
2021/11/18 05:24:25;;;;;;;22.60;5.33;;;7.40;99.90;;;;;;4894207;29;20613;-79
2021/11/18 05:26:58;;;;;;;20.77;5.53;;;7.60;99.90;;;;;;4890959;29;20296;-79
2021/11/18 05:29:26;;;;;;;18.50;4.60;;;7.60;99.90;;;;;;4890846;29;20245;-78
2021/11/18 05:31:55;;;;;;;23.40;7.17;;;7.60;99.90;;;;;;4893387;29;20323;-78
2021/11/18 05:34:52;;;;;;;17.47;5.30;;;7.50;99.90;;;;;;4889903;29;20245;-79
2021/11/18 05:37:21;;;;;;;26.80;5.00;;;7.40;99.90;;;;;;4875742;29;20240;-78
2021/11/18 05:39:51;;;;;;;21.87;6.37;;;7.40;99.90;;;;;;4890721;29;20245;-79
2021/11/18 05:42:20;;;;;;;22.80;5.33;;;7.50;99.90;;;;;;4891703;29;20682;-78
2021/11/18 05:44:51;;;;;;;20.23;5.30;;;7.60;99.90;;;;;;4886371;29;20255;-81
2021/11/18 05:47:21;;;;;;;18.13;4.50;;;7.50;99.90;;;;;;4891860;29;20256;-79
2021/11/18 05:49:50;;;;;;;24.17;5.47;;;7.50;99.90;;;;;;4891313;29;20237;-79
2021/11/18 05:52:23;;;;;;;21.20;5.47;;;7.50;99.90;;;;;;4894456;29;20567;-80
2021/11/18 05:54:53;;;;;;;23.47;5.40;;;7.40;99.90;;;;;;4891149;29;20236;-80
2021/11/18 05:57:22;;;;;;;22.57;5.50;;;7.40;99.90;;;;;;4890909;29;20922;-80
2021/11/18 05:59:51;;;;;;;19.00;5.00;;;7.40;99.90;;;;;;4899560;29;20236;-80
2021/11/18 06:02:20;;;;;;;20.80;5.33;;;7.40;99.90;;;;;;4898415;29;20245;-80
2021/11/18 06:04:48;;;;;;;20.63;5.00;;;7.40;99.90;;;;;;4899404;29;20735;-80
2021/11/18 06:07:17;;;;;;;20.03;4.87;;;7.40;99.90;;;;;;4894555;29;20253;-80
2021/11/18 06:09:45;;;;;;;17.50;5.10;;;7.50;99.90;;;;;;4875015;29;20229;-80
2021/11/18 06:12:16;;;;;;;26.50;5.83;;;7.50;99.90;;;;;;4891360;29;20292;-81
2021/11/18 06:14:45;;;;;;;24.53;5.70;;;7.50;99.90;;;;;;4883382;29;20292;-81
2021/11/18 06:17:13;;;;;;;21.83;6.17;;;7.60;99.90;;;;;;4874816;29;20599;-80
2021/11/18 06:19:44;;;;;;;31.00;6.27;;;7.70;99.90;;;;;;4889191;29;20236;-82
2021/11/18 06:22:13;;;;;;;30.50;6.53;;;7.70;99.90;;;;;;4892813;29;20244;-80
2021/11/18 06:25:00;;;;;;;30.13;6.70;;;7.70;99.90;;;;;;4887979;29;20245;-81
2021/11/18 06:27:30;;;;;;;20.80;6.17;;;7.70;99.90;;;;;;4888920;29;20240;-80
2021/11/18 06:30:00;;;;;;;26.13;5.90;;;7.60;99.90;;;;;;4889278;29;20241;-80
2021/11/18 06:32:33;;;;;;;31.40;7.67;;;7.50;99.90;;;;;;4873095;29;20331;-80
2021/11/18 06:35:01;;;;;;;19.23;6.27;;;7.50;99.90;;;;;;4886049;29;20777;-80
2021/11/18 06:37:29;;;;;;;20.40;6.23;;;7.50;99.90;;;;;;4891205;29;20730;-80
2021/11/18 06:39:58;;;;;;;24.73;6.20;;;7.50;99.90;;;;;;4871695;29;20267;-80
2021/11/18 06:42:27;;;;;;;34.60;8.13;;;7.60;99.90;;;;;;4888434;29;20332;-80
2021/11/18 06:45:10;;;;;;;24.03;6.67;;;7.60;99.90;;;;;;4872050;29;20239;-79
2021/11/18 06:47:42;;;;;;;22.10;5.90;;;7.60;99.90;;;;;;4888430;29;20928;-79
2021/11/18 06:50:13;;;;;;;21.10;5.60;;;7.50;99.90;;;;;;4885008;29;20241;-80
2021/11/18 06:52:41;;;;;;;21.23;6.00;;;7.50;99.90;;;;;;4891834;29;20252;-80
2021/11/18 06:55:11;;;;;;;23.53;5.90;;;7.50;99.90;;;;;;4893191;29;20610;-79
2021/11/18 06:57:39;;;;;;;26.10;7.00;;;7.40;99.90;;;;;;4894457;29;20292;-80
2021/11/18 07:00:11;;;;;;;23.53;7.20;;;7.50;99.90;;;;;;4871949;29;20608;-80
2021/11/18 07:02:53;;;;;;;23.73;5.67;;;7.50;99.90;;;;;;4888967;29;20230;-81
2021/11/18 07:05:23;;;;;;;27.17;6.40;;;7.60;99.90;;;;;;4894770;29;20252;-80
2021/11/18 07:07:53;;;;;;;28.43;6.40;;;7.60;99.90;;;;;;4895963;29;20637;-81
2021/11/18 07:10:24;;;;;;;28.13;6.80;;;7.60;99.90;;;;;;4815528;29;20248;-81
2021/11/18 07:13:01;;;;;;;21.25;6.13;;;7.70;99.90;;;;;;1007686;29;10002034;-81
2021/11/18 07:15:31;;;;;;;24.50;7.80;;;7.70;99.90;;;;;;4893339;29;20244;-80
2021/11/18 07:18:01;;;;;;;21.47;6.30;;;7.80;99.90;;;;;;4891206;29;20316;-80
2021/11/18 07:20:29;;;;;;;27.00;6.97;;;7.80;99.90;;;;;;4893547;29;20241;-79
2021/11/18 07:23:03;;;;;;;23.83;6.13;;;7.70;99.90;;;;;;4893708;29;20320;-80
2021/11/18 07:25:40;;;;;;;24.60;6.37;;;7.80;99.90;;;;;;4893596;29;20362;-80
2021/11/18 07:28:10;;;;;;;25.23;6.60;;;7.80;99.90;;;;;;4880021;29;20241;-80
2021/11/18 07:30:43;;;;;;;26.27;6.60;;;7.80;99.90;;;;;;4895748;29;20562;-80
2021/11/18 07:33:13;;;;;;;25.10;6.90;;;7.80;99.90;;;;;;4893351;29;20237;-80
2021/11/18 07:35:42;;;;;;;25.33;7.10;;;7.80;99.90;;;;;;4894568;29;20308;-80
2021/11/18 07:38:12;;;;;;;35.83;7.60;;;7.90;99.90;;;;;;4881334;29;20233;-80
2021/11/18 07:40:41;;;;;;;20.13;6.80;;;7.80;99.90;;;;;;4893708;29;20293;-80
2021/11/18 07:43:19;;;;;;;22.43;6.93;;;7.80;99.90;;;;;;4893472;29;20255;-80
2021/11/18 07:45:56;;;;;;;25.70;6.30;;;7.90;99.90;;;;;;4893745;29;20248;-80
2021/11/18 07:48:36;;;;;;;22.50;6.47;;;7.90;99.90;;;;;;4895182;29;20888;-81
2021/11/18 07:51:08;;;;;;;23.10;7.13;;;7.80;99.90;;;;;;4895643;29;20729;-80
2021/11/18 07:53:36;;;;;;;26.67;7.60;;;7.90;99.90;;;;;;4877909;29;20250;-80
2021/11/18 07:56:05;;;;;;;22.33;7.17;;;7.90;99.90;;;;;;4895291;29;20237;-80
2021/11/18 07:58:36;;;;;;;33.17;9.07;;;8.00;99.90;;;;;;4900321;29;20279;-80
2021/11/18 08:01:08;;;;;;;31.63;8.50;;;8.00;99.90;;;;;;4893958;29;20249;-80
2021/11/18 08:03:38;;;;;;;36.80;8.50;;;8.00;99.90;;;;;;4895554;29;20613;-80
2021/11/18 08:06:24;;;;;;;27.77;7.70;;;8.00;99.90;;;;;;4893641;29;20578;-80
2021/11/18 08:09:03;;;;;;;28.37;8.03;;;8.00;99.90;;;;;;4876122;29;20244;-80
2021/11/18 08:11:35;;;;;;;27.80;8.10;;;7.90;99.90;;;;;;4894009;29;20324;-80
2021/11/18 08:14:05;;;;;;;25.53;7.93;;;8.00;99.90;;;;;;4895306;29;20233;-80
2021/11/18 08:16:36;;;;;;;25.90;7.30;;;8.00;99.90;;;;;;4877929;29;20241;-79
2021/11/18 08:19:06;;;;;;;21.87;8.03;;;8.00;99.90;;;;;;4871044;29;20249;-81
2021/11/18 08:21:35;;;;;;;23.50;8.10;;;8.00;99.90;;;;;;4875908;29;20244;-81
2021/11/18 08:24:06;;;;;;;30.20;8.97;;;8.10;99.90;;;;;;4892380;29;20549;-80
2021/11/18 08:26:35;;;;;;;23.63;7.17;;;8.10;99.90;;;;;;4890451;29;20249;-80
2021/11/18 08:29:14;;;;;;;25.63;8.37;;;8.10;99.90;;;;;;4891098;29;20244;-80
2021/11/18 08:31:45;;;;;;;34.33;8.67;;;8.10;99.90;;;;;;4876839;29;20367;-80
2021/11/18 08:34:32;;;;;;;22.07;7.70;;;8.10;99.90;;;;;;4889625;29;20706;-80
2021/11/18 08:37:09;;;;;;;29.37;7.87;;;8.20;99.90;;;;;;4874079;29;20236;-80
2021/11/18 08:39:40;;;;;;;27.03;7.23;;;8.20;99.90;;;;;;4890497;29;20263;-80
2021/11/18 08:42:13;;;;;;;27.50;8.03;;;8.30;99.90;;;;;;4892052;29;20233;-80
2021/11/18 08:44:44;;;;;;;27.63;8.13;;;8.20;99.90;;;;;;4889613;29;20280;-80
2021/11/18 08:47:16;;;;;;;27.50;7.67;;;8.30;99.90;;;;;;4889683;29;20260;-81
2021/11/18 08:49:45;;;;;;;25.60;8.33;;;8.30;99.90;;;;;;4890972;29;20320;-80
2021/11/18 08:52:17;;;;;;;26.50;8.60;;;8.40;99.90;;;;;;4875398;29;20252;-80
2021/11/18 08:54:53;;;;;;;27.43;8.67;;;8.40;99.90;;;;;;4887505;29;20324;-80
2021/11/18 08:57:23;;;;;;;26.23;8.10;;;8.50;99.90;;;;;;4889970;29;20241;-80
2021/11/18 09:00:12;;;;;;;26.37;8.03;;;8.50;99.90;;;;;;4890301;29;20241;-80
2021/11/18 09:02:54;;;;;;;21.60;8.07;;;8.50;99.90;;;;;;4890057;29;20281;-80
2021/11/18 09:05:25;;;;;;;34.87;8.43;;;8.50;99.90;;;;;;4887207;29;20251;-80
2021/11/18 09:07:54;;;;;;;29.13;8.77;;;8.60;99.90;;;;;;4896868;29;20328;-80
2021/11/18 09:10:37;;;;;;;25.23;7.93;;;8.60;99.90;;;;;;2423966;29;10022730;-80
2021/11/18 09:13:07;;;;;;;27.37;8.13;;;8.60;99.90;;;;;;3863458;29;10001312;-80
2021/11/18 09:15:37;;;;;;;28.37;8.50;;;8.60;99.90;;;;;;4890740;29;20474;-80
2021/11/18 09:18:08;;;;;;;29.93;8.23;;;8.60;99.90;;;;;;4893242;29;20251;-80
2021/11/18 09:20:45;;;;;;;23.17;6.93;;;8.70;99.90;;;;;;4869668;29;20829;-80
2021/11/18 09:23:16;;;;;;;27.63;7.87;;;8.70;99.90;;;;;;4889008;29;20336;-80
2021/11/18 09:25:47;;;;;;;28.60;7.13;;;8.70;99.90;;;;;;4883431;29;20617;-79
2021/11/18 09:28:22;;;;;;;29.30;7.70;;;8.80;99.90;;;;;;4883137;29;20452;-79
2021/11/18 09:31:11;;;;;;;32.20;8.07;;;8.80;99.90;;;;;;4887507;29;20654;-83
2021/11/18 09:33:43;;;;;;;24.17;8.00;;;8.80;99.90;;;;;;4888997;29;21010;-81
2021/11/18 09:36:15;;;;;;;33.00;8.33;;;8.90;99.90;;;;;;4888710;29;20280;-80
2021/11/18 09:38:46;;;;;;;27.07;11.13;;;8.90;99.90;;;;;;4872545;29;20374;-80
2021/11/18 09:41:48;;;;;;;31.47;12.80;;;8.90;99.90;;;;;;4888870;29;20268;-81
2021/11/18 09:44:47;;;;;;;39.93;21.67;;;8.90;99.90;;;;;;4884931;29;20332;-81
2021/11/18 09:48:12;;;;;;;31.93;11.47;;;9.00;99.90;;;;;;4893674;29;20247;-81
2021/11/18 09:50:59;;;;;;;35.80;11.83;;;9.00;99.90;;;;;;4871172;29;20260;-81
2021/11/18 09:53:43;;;;;;;28.30;9.57;;;9.10;99.90;;;;;;4883365;29;20316;-80
2021/11/18 09:56:21;;;;;;;29.73;10.57;;;9.10;99.90;;;;;;4893708;29;20717;-81
2021/11/18 09:59:28;;;;;;;29.33;14.30;;;9.10;99.90;;;;;;4897393;29;20323;-80
2021/11/18 10:02:37;;;;;;;29.87;11.60;;;9.10;99.90;;;;;;4876084;29;20324;-81
2021/11/18 10:05:08;;;;;;;37.03;10.93;;;9.10;99.90;;;;;;4881980;29;20296;-80
2021/11/18 10:07:45;;;;;;;25.23;10.63;;;9.30;99.90;;;;;;4888475;29;20724;-81
2021/11/18 10:10:29;;;;;;;33.07;10.33;;;9.30;99.90;;;;;;4883780;29;20237;-79
2021/11/18 10:13:21;;;;;;;23.27;8.70;;;9.40;99.90;;;;;;4890075;29;20701;-80
2021/11/18 10:15:55;;;;;;;29.03;8.10;;;9.50;99.90;;;;;;4882562;29;20241;-80
2021/11/18 10:18:28;;;;;;;25.80;8.10;;;9.50;99.90;;;;;;4874795;29;20240;-80
2021/11/18 10:21:01;;;;;;;25.37;8.27;;;9.50;99.90;;;;;;4884714;29;20324;-80
2021/11/18 10:23:31;;;;;;;25.17;7.70;;;9.60;99.90;;;;;;4885077;29;20247;-81
2021/11/18 10:26:05;;;;;;;23.03;8.00;;;9.60;99.90;;;;;;4886105;29;20837;-82
2021/11/18 10:28:40;;;;;;;29.37;8.00;;;9.60;99.90;;;;;;4885856;29;20252;-81
2021/11/18 10:31:17;;;;;;;27.40;8.10;;;9.50;99.90;;;;;;4887103;29;20252;-81
2021/11/18 10:33:54;;;;;;;26.40;8.73;;;9.60;99.90;;;;;;4878266;29;20312;-80
2021/11/18 10:36:44;;;;;;;23.30;7.77;;;9.60;99.90;;;;;;4887020;29;20319;-81
2021/11/18 10:39:24;;;;;;;28.80;7.40;;;9.70;99.90;;;;;;4883845;29;20305;-80
2021/11/18 10:41:56;;;;;;;24.10;7.83;;;9.80;99.90;;;;;;4880434;29;20237;-80
2021/11/18 10:44:28;;;;;;;21.73;6.80;;;9.80;99.90;;;;;;4885118;29;20241;-80
2021/11/18 10:47:02;;;;;;;26.33;7.20;;;9.90;99.90;;;;;;4880828;29;20240;-80
2021/11/18 10:49:42;;;;;;;25.27;7.30;;;9.90;99.90;;;;;;4884895;29;20320;-81
2021/11/18 10:52:21;;;;;;;27.30;7.10;;;9.90;99.90;;;;;;4879929;29;20363;-80
2021/11/18 10:55:01;;;;;;;18.77;6.87;;;9.90;99.90;;;;;;4877764;29;20244;-81
2021/11/18 10:57:32;;;;;;;21.70;6.73;;;9.90;99.90;;;;;;4884651;29;20251;-80
2021/11/18 11:00:15;;;;;;;19.70;7.93;;;9.90;99.90;;;;;;4875854;29;20241;-80
2021/11/18 11:02:44;;;;;;;22.13;7.10;;;9.90;99.90;;;;;;4884828;29;20259;-80
2021/11/18 11:05:37;;;;;;;23.83;7.27;;;9.90;99.90;;;;;;4879526;29;20248;-80
2021/11/18 11:08:28;;;;;;;25.40;7.30;;;9.90;99.90;;;;;;4880088;29;20332;-80
2021/11/18 11:11:35;;;;;;;19.26;6.64;;;10.00;99.90;;;;;;4640788;29;10000953;-80
2021/11/18 11:14:48;;;;;;;19.15;6.78;;;10.00;99.90;;;;;;2347689;29;10001979;-80
2021/11/18 11:17:41;;;;;;;25.23;7.10;;;10.00;99.90;;;;;;4841291;29;20707;-80
2021/11/18 11:20:14;;;;;;;22.83;6.27;;;10.00;99.90;;;;;;4885465;29;20265;-80
2021/11/18 11:22:50;;;;;;;21.47;6.30;;;9.90;99.90;;;;;;4888445;29;20722;-80
2021/11/18 11:25:48;;;;;;;30.67;12.33;;;9.90;99.90;;;;;;4885147;29;20844;-80
2021/11/18 11:28:46;;;;;;;18.77;9.00;;;9.80;99.90;;;;;;4882528;29;20253;-80
2021/11/18 11:31:28;;;;;;;23.13;8.43;;;9.80;99.90;;;;;;4882107;29;20775;-80
2021/11/18 11:34:06;;;;;;;25.77;8.43;;;9.80;99.90;;;;;;4880902;29;20725;-80
2021/11/18 11:36:39;;;;;;;26.67;8.40;;;9.80;99.90;;;;;;4896299;29;20241;-80
2021/11/18 11:39:18;;;;;;;21.13;8.30;;;9.80;99.90;;;;;;4884283;29;20701;-80
2021/11/18 11:42:32;;;;;;;24.20;7.63;;;9.80;99.90;;;;;;4884895;29;20260;-80
2021/11/18 11:45:11;;;;;;;25.07;7.43;;;9.90;99.90;;;;;;4878524;29;20245;-80
2021/11/18 11:48:02;;;;;;;22.60;6.43;;;9.90;99.90;;;;;;4885233;29;20272;-80
2021/11/18 11:50:43;;;;;;;21.90;7.47;;;9.90;99.90;;;;;;4886343;29;20276;-80
2021/11/18 11:53:21;;;;;;;22.73;7.03;;;9.90;99.90;;;;;;4888428;29;20594;-80
2021/11/18 11:56:01;;;;;;;20.33;6.07;;;9.90;99.90;;;;;;4889546;29;20332;-80
2021/11/18 11:58:33;;;;;;;14.73;6.47;;;9.90;99.90;;;;;;4889741;29;20245;-80
2021/11/18 12:01:36;;;;;;;24.17;6.10;;;9.90;99.90;;;;;;4882910;29;20736;-80
2021/11/18 12:04:10;;;;;;;20.43;6.30;;;9.80;99.90;;;;;;4888091;29;20247;-80
2021/11/18 12:06:42;;;;;;;21.27;6.20;;;9.80;99.90;;;;;;4875230;29;20270;-80
2021/11/18 12:09:14;;;;;;;20.13;6.40;;;9.80;99.90;;;;;;4886213;29;20372;-80
2021/11/18 12:11:50;;;;;;;20.37;6.37;;;9.80;99.90;;;;;;4898992;29;20339;-80
2021/11/18 12:14:27;;;;;;;23.57;6.50;;;9.80;99.90;;;;;;4893548;29;20987;-80
2021/11/18 12:17:02;;;;;;;18.27;5.93;;;9.80;99.90;;;;;;4892568;29;20252;-80
2021/11/18 12:19:44;;;;;;;20.60;5.70;;;9.80;99.90;;;;;;4893744;29;20287;-80
2021/11/18 12:22:36;;;;;;;31.53;10.53;;;9.80;99.90;;;;;;4894869;29;20268;-80
2021/11/18 12:25:17;;;;;;;22.33;7.50;;;9.80;99.90;;;;;;4890754;29;20244;-80
2021/11/18 12:28:00;;;;;;;24.50;7.83;;;9.70;99.90;;;;;;4885698;29;21066;-80
2021/11/18 12:30:52;;;;;;;25.03;6.67;;;9.80;99.90;;;;;;4892476;29;20256;-80
2021/11/18 12:33:44;;;;;;;23.77;6.40;;;9.70;99.90;;;;;;4890772;29;20778;-80
2021/11/18 12:36:16;;;;;;;19.30;6.27;;;9.80;99.90;;;;;;4894794;29;20281;-79
2021/11/18 12:38:47;;;;;;;23.63;5.43;;;9.80;99.90;;;;;;4887149;29;20328;-80
2021/11/18 12:41:49;;;;;;;19.97;5.70;;;9.80;99.90;;;;;;4885837;29;20249;-80
2021/11/18 12:44:41;;;;;;;22.33;5.97;;;9.80;99.90;;;;;;4888545;29;20313;-80
2021/11/18 12:47:12;;;;;;;16.00;4.97;;;9.80;99.90;;;;;;4886842;29;20244;-79
2021/11/18 12:50:11;;;;;;;16.33;4.97;;;9.80;99.90;;;;;;4892626;29;20273;-80
2021/11/18 12:52:41;;;;;;;19.27;4.87;;;9.70;99.90;;;;;;4895081;29;20269;-80
2021/11/18 12:55:21;;;;;;;20.60;5.87;;;9.70;99.90;;;;;;4891013;29;20435;-81
2021/11/18 12:57:53;;;;;;;19.80;5.50;;;9.70;99.90;;;;;;4897099;29;20639;-80
2021/11/18 13:00:41;;;;;;;22.77;5.17;;;9.70;99.90;;;;;;4890143;29;20702;-79
2021/11/18 13:03:34;;;;;;;12.61;4.20;;;9.70;99.90;;;;;;3681478;29;10023554;-80
2021/11/18 13:06:04;;;;;;;19.30;4.73;;;9.70;99.90;;;;;;3699596;29;10002118;-79
2021/11/18 13:08:54;;;;;;;24.63;5.73;;;9.70;99.90;;;;;;4884917;29;20997;-80
2021/11/18 13:11:43;;;;;;;19.43;5.80;;;9.70;99.90;;;;;;4884142;29;20280;-80
2021/11/18 13:14:33;;;;;;;22.13;5.87;;;9.70;99.90;;;;;;4880902;29;20339;-81
2021/11/18 13:17:19;;;;;;;16.77;5.37;;;9.70;99.90;;;;;;4878554;29;20725;-80
2021/11/18 13:20:32;;;;;;;20.57;6.27;;;9.70;99.90;;;;;;4871234;29;20345;-80
2021/11/18 13:23:33;;;;;;;19.60;6.07;;;9.60;99.90;;;;;;4881129;29;20256;-80
2021/11/18 13:26:05;;;;;;;19.87;5.40;;;9.60;99.90;;;;;;4877850;29;20276;-81